sensor_id;sensor_type;location;lat;lon;timestamp;P1;durP1;ratioP1;P2;durP2;ratioP2
982;SDS011;480;48.124;11.578;2022-12-29T00:00:07;1.77;;;1.67;;
982;SDS011;480;48.124;11.578;2022-12-29T00:02:36;1.20;;;1.10;;
982;SDS011;480;48.124;11.578;2022-12-29T00:05:05;1.60;;;1.50;;
982;SDS011;480;48.124;11.578;2022-12-29T00:07:33;1.83;;;1.73;;
982;SDS011;480;48.124;11.578;2022-12-29T00:10:00;1.17;;;0.93;;
982;SDS011;480;48.124;11.578;2022-12-29T00:12:27;2.30;;;1.23;;
982;SDS011;480;48.124;11.578;2022-12-29T00:15:14;0.80;;;0.73;;
982;SDS011;480;48.124;11.578;2022-12-29T00:17:59;1.60;;;1.50;;
982;SDS011;480;48.124;11.578;2022-12-29T00:20:27;1.37;;;1.20;;
982;SDS011;480;48.124;11.578;2022-12-29T00:23:12;1.73;;;1.30;;
982;SDS011;480;48.124;11.578;2022-12-29T00:25:56;1.43;;;1.33;;
982;SDS011;480;48.124;11.578;2022-12-29T00:28:40;6.07;;;4.57;;
982;SDS011;480;48.124;11.578;2022-12-29T00:31:27;1.57;;;1.47;;
982;SDS011;480;48.124;11.578;2022-12-29T00:34:11;1.23;;;1.10;;
982;SDS011;480;48.124;11.578;2022-12-29T00:36:58;1.13;;;1.00;;
982;SDS011;480;48.124;11.578;2022-12-29T00:39:25;2.20;;;1.20;;
982;SDS011;480;48.124;11.578;2022-12-29T00:42:09;1.07;;;1.07;;
982;SDS011;480;48.124;11.578;2022-12-29T00:44:53;1.40;;;1.30;;
982;SDS011;480;48.124;11.578;2022-12-29T00:47:20;1.90;;;1.37;;
982;SDS011;480;48.124;11.578;2022-12-29T00:49:47;0.97;;;0.77;;
982;SDS011;480;48.124;11.578;2022-12-29T00:52:15;2.00;;;1.77;;
982;SDS011;480;48.124;11.578;2022-12-29T00:54:42;1.80;;;1.60;;
982;SDS011;480;48.124;11.578;2022-12-29T00:57:10;1.40;;;1.30;;
982;SDS011;480;48.124;11.578;2022-12-29T00:59:38;1.90;;;1.40;;
982;SDS011;480;48.124;11.578;2022-12-29T01:02:07;1.23;;;1.03;;
982;SDS011;480;48.124;11.578;2022-12-29T01:04:35;2.20;;;1.43;;
982;SDS011;480;48.124;11.578;2022-12-29T01:07:02;1.27;;;1.00;;
982;SDS011;480;48.124;11.578;2022-12-29T01:09:32;0.90;;;0.83;;
982;SDS011;480;48.124;11.578;2022-12-29T01:12:16;1.30;;;0.90;;
982;SDS011;480;48.124;11.578;2022-12-29T01:15:04;1.27;;;1.13;;
982;SDS011;480;48.124;11.578;2022-12-29T01:17:31;2.17;;;1.37;;
982;SDS011;480;48.124;11.578;2022-12-29T01:19:59;0.93;;;0.83;;
982;SDS011;480;48.124;11.578;2022-12-29T01:22:26;1.17;;;0.80;;
982;SDS011;480;48.124;11.578;2022-12-29T01:24:54;1.13;;;1.03;;
982;SDS011;480;48.124;11.578;2022-12-29T01:27:22;1.30;;;1.20;;
982;SDS011;480;48.124;11.578;2022-12-29T01:29:49;1.33;;;1.00;;
982;SDS011;480;48.124;11.578;2022-12-29T01:32:16;1.37;;;1.10;;
982;SDS011;480;48.124;11.578;2022-12-29T01:34:43;1.63;;;1.27;;
982;SDS011;480;48.124;11.578;2022-12-29T01:37:10;1.13;;;1.03;;
982;SDS011;480;48.124;11.578;2022-12-29T01:39:37;1.27;;;1.17;;
982;SDS011;480;48.124;11.578;2022-12-29T01:42:08;1.17;;;1.10;;
982;SDS011;480;48.124;11.578;2022-12-29T01:44:47;0.83;;;0.83;;
982;SDS011;480;48.124;11.578;2022-12-29T01:47:19;7.20;;;1.30;;
982;SDS011;480;48.124;11.578;2022-12-29T01:49:52;2.03;;;1.10;;
982;SDS011;480;48.124;11.578;2022-12-29T01:52:21;0.93;;;0.87;;
982;SDS011;480;48.124;11.578;2022-12-29T01:54:50;1.00;;;1.00;;
982;SDS011;480;48.124;11.578;2022-12-29T01:57:24;1.23;;;1.13;;
982;SDS011;480;48.124;11.578;2022-12-29T01:59:54;0.90;;;0.90;;
982;SDS011;480;48.124;11.578;2022-12-29T02:02:24;0.80;;;0.80;;
982;SDS011;480;48.124;11.578;2022-12-29T02:04:51;1.17;;;0.90;;
982;SDS011;480;48.124;11.578;2022-12-29T02:07:21;0.93;;;0.93;;
982;SDS011;480;48.124;11.578;2022-12-29T02:09:51;1.57;;;0.90;;
982;SDS011;480;48.124;11.578;2022-12-29T02:12:21;1.20;;;1.10;;
982;SDS011;480;48.124;11.578;2022-12-29T02:14:53;1.17;;;1.07;;
982;SDS011;480;48.124;11.578;2022-12-29T02:17:23;1.70;;;1.20;;
982;SDS011;480;48.124;11.578;2022-12-29T02:23:06;1.03;;;0.90;;
982;SDS011;480;48.124;11.578;2022-12-29T02:26:04;1.53;;;1.43;;
982;SDS011;480;48.124;11.578;2022-12-29T02:31:43;0.97;;;0.60;;
982;SDS011;480;48.124;11.578;2022-12-29T02:34:19;1.00;;;1.00;;
982;SDS011;480;48.124;11.578;2022-12-29T02:37:00;0.73;;;0.73;;
982;SDS011;480;48.124;11.578;2022-12-29T02:39:34;1.10;;;1.00;;
982;SDS011;480;48.124;11.578;2022-12-29T02:42:08;1.50;;;1.50;;
982;SDS011;480;48.124;11.578;2022-12-29T02:44:42;0.70;;;0.60;;
982;SDS011;480;48.124;11.578;2022-12-29T02:47:21;1.50;;;1.20;;
982;SDS011;480;48.124;11.578;2022-12-29T02:49:54;0.80;;;0.80;;
982;SDS011;480;48.124;11.578;2022-12-29T02:52:27;1.00;;;1.00;;
982;SDS011;480;48.124;11.578;2022-12-29T02:54:58;1.20;;;1.07;;
982;SDS011;480;48.124;11.578;2022-12-29T02:57:28;2.97;;;0.90;;
982;SDS011;480;48.124;11.578;2022-12-29T02:59:57;1.43;;;1.20;;
982;SDS011;480;48.124;11.578;2022-12-29T03:02:32;1.33;;;1.00;;
982;SDS011;480;48.124;11.578;2022-12-29T03:05:21;0.97;;;0.87;;
982;SDS011;480;48.124;11.578;2022-12-29T03:08:03;1.37;;;0.70;;
982;SDS011;480;48.124;11.578;2022-12-29T03:10:38;0.90;;;0.80;;
982;SDS011;480;48.124;11.578;2022-12-29T03:13:16;1.00;;;0.77;;
982;SDS011;480;48.124;11.578;2022-12-29T03:16:11;1.20;;;0.70;;
982;SDS011;480;48.124;11.578;2022-12-29T03:18:49;1.83;;;1.00;;
982;SDS011;480;48.124;11.578;2022-12-29T03:21:24;1.00;;;0.90;;
982;SDS011;480;48.124;11.578;2022-12-29T03:24:10;1.13;;;0.90;;
982;SDS011;480;48.124;11.578;2022-12-29T03:26:38;1.27;;;0.90;;
982;SDS011;480;48.124;11.578;2022-12-29T03:29:08;1.30;;;1.17;;
982;SDS011;480;48.124;11.578;2022-12-29T03:31:36;1.20;;;1.10;;
982;SDS011;480;48.124;11.578;2022-12-29T03:34:06;1.20;;;0.73;;
982;SDS011;480;48.124;11.578;2022-12-29T03:36:36;0.70;;;0.70;;
982;SDS011;480;48.124;11.578;2022-12-29T03:39:11;0.60;;;0.60;;
982;SDS011;480;48.124;11.578;2022-12-29T03:41:40;1.57;;;0.90;;
982;SDS011;480;48.124;11.578;2022-12-29T03:44:10;0.80;;;0.80;;
982;SDS011;480;48.124;11.578;2022-12-29T03:46:38;0.60;;;0.60;;
982;SDS011;480;48.124;11.578;2022-12-29T03:49:07;0.70;;;0.70;;
982;SDS011;480;48.124;11.578;2022-12-29T03:51:34;0.70;;;0.60;;
982;SDS011;480;48.124;11.578;2022-12-29T03:54:01;0.50;;;0.50;;
982;SDS011;480;48.124;11.578;2022-12-29T03:56:28;1.20;;;0.70;;
982;SDS011;480;48.124;11.578;2022-12-29T03:58:55;1.00;;;0.80;;
982;SDS011;480;48.124;11.578;2022-12-29T04:01:22;1.63;;;1.00;;
982;SDS011;480;48.124;11.578;2022-12-29T04:03:49;0.90;;;0.90;;
982;SDS011;480;48.124;11.578;2022-12-29T04:06:18;0.93;;;0.80;;
982;SDS011;480;48.124;11.578;2022-12-29T04:08:50;0.87;;;0.80;;
982;SDS011;480;48.124;11.578;2022-12-29T04:11:21;0.70;;;0.70;;
982;SDS011;480;48.124;11.578;2022-12-29T04:13:48;0.80;;;0.80;;
982;SDS011;480;48.124;11.578;2022-12-29T04:16:15;1.97;;;1.10;;
982;SDS011;480;48.124;11.578;2022-12-29T04:18:42;0.87;;;0.70;;
982;SDS011;480;48.124;11.578;2022-12-29T04:21:09;1.00;;;0.77;;
982;SDS011;480;48.124;11.578;2022-12-29T04:23:38;0.90;;;0.70;;
982;SDS011;480;48.124;11.578;2022-12-29T04:26:05;1.33;;;0.80;;
982;SDS011;480;48.124;11.578;2022-12-29T04:28:34;0.80;;;0.80;;
982;SDS011;480;48.124;11.578;2022-12-29T04:31:01;1.10;;;1.07;;
982;SDS011;480;48.124;11.578;2022-12-29T04:33:28;0.90;;;0.90;;
982;SDS011;480;48.124;11.578;2022-12-29T04:35:55;0.83;;;0.80;;
982;SDS011;480;48.124;11.578;2022-12-29T04:38:22;0.60;;;0.60;;
982;SDS011;480;48.124;11.578;2022-12-29T04:40:51;1.00;;;0.73;;
982;SDS011;480;48.124;11.578;2022-12-29T04:43:18;1.10;;;0.90;;
982;SDS011;480;48.124;11.578;2022-12-29T04:45:47;0.93;;;0.93;;
982;SDS011;480;48.124;11.578;2022-12-29T04:48:14;1.00;;;0.90;;
982;SDS011;480;48.124;11.578;2022-12-29T04:50:41;1.00;;;0.90;;
982;SDS011;480;48.124;11.578;2022-12-29T04:53:09;1.23;;;0.93;;
982;SDS011;480;48.124;11.578;2022-12-29T04:55:36;0.70;;;0.70;;
982;SDS011;480;48.124;11.578;2022-12-29T04:58:04;0.73;;;0.73;;
982;SDS011;480;48.124;11.578;2022-12-29T05:00:31;0.80;;;0.77;;
982;SDS011;480;48.124;11.578;2022-12-29T05:02:58;0.70;;;0.67;;
982;SDS011;480;48.124;11.578;2022-12-29T05:05:25;0.50;;;0.50;;
982;SDS011;480;48.124;11.578;2022-12-29T05:07:52;1.00;;;0.70;;
982;SDS011;480;48.124;11.578;2022-12-29T05:10:19;0.83;;;0.83;;
982;SDS011;480;48.124;11.578;2022-12-29T05:12:46;1.00;;;0.90;;
982;SDS011;480;48.124;11.578;2022-12-29T05:15:14;0.97;;;0.97;;
982;SDS011;480;48.124;11.578;2022-12-29T05:17:41;1.00;;;0.73;;
982;SDS011;480;48.124;11.578;2022-12-29T05:20:09;1.20;;;1.10;;
982;SDS011;480;48.124;11.578;2022-12-29T05:22:36;1.57;;;0.90;;
982;SDS011;480;48.124;11.578;2022-12-29T05:25:04;0.80;;;0.80;;
982;SDS011;480;48.124;11.578;2022-12-29T05:27:31;1.70;;;1.00;;
982;SDS011;480;48.124;11.578;2022-12-29T05:29:58;1.00;;;0.70;;
982;SDS011;480;48.124;11.578;2022-12-29T05:32:26;1.03;;;1.00;;
982;SDS011;480;48.124;11.578;2022-12-29T05:34:53;0.90;;;0.70;;
982;SDS011;480;48.124;11.578;2022-12-29T05:37:20;1.97;;;1.10;;
982;SDS011;480;48.124;11.578;2022-12-29T05:39:47;1.43;;;1.00;;
982;SDS011;480;48.124;11.578;2022-12-29T05:42:14;1.27;;;1.17;;
982;SDS011;480;48.124;11.578;2022-12-29T05:44:41;1.27;;;1.10;;
982;SDS011;480;48.124;11.578;2022-12-29T05:47:09;1.27;;;0.80;;
982;SDS011;480;48.124;11.578;2022-12-29T05:49:37;1.20;;;1.10;;
982;SDS011;480;48.124;11.578;2022-12-29T05:52:04;1.10;;;1.00;;
982;SDS011;480;48.124;11.578;2022-12-29T05:54:31;1.03;;;0.90;;
982;SDS011;480;48.124;11.578;2022-12-29T05:56:58;1.10;;;1.03;;
982;SDS011;480;48.124;11.578;2022-12-29T05:59:25;1.00;;;0.87;;
982;SDS011;480;48.124;11.578;2022-12-29T06:01:52;1.27;;;0.97;;
982;SDS011;480;48.124;11.578;2022-12-29T06:04:19;0.70;;;0.60;;
982;SDS011;480;48.124;11.578;2022-12-29T06:06:47;0.90;;;0.90;;
982;SDS011;480;48.124;11.578;2022-12-29T06:09:14;1.13;;;0.77;;
982;SDS011;480;48.124;11.578;2022-12-29T06:11:41;0.90;;;0.90;;
982;SDS011;480;48.124;11.578;2022-12-29T06:14:08;1.00;;;0.90;;
982;SDS011;480;48.124;11.578;2022-12-29T06:16:35;1.13;;;1.13;;
982;SDS011;480;48.124;11.578;2022-12-29T06:19:02;0.80;;;0.80;;
982;SDS011;480;48.124;11.578;2022-12-29T06:21:29;2.10;;;1.23;;
982;SDS011;480;48.124;11.578;2022-12-29T06:23:57;2.00;;;0.90;;
982;SDS011;480;48.124;11.578;2022-12-29T06:26:24;1.20;;;1.00;;
982;SDS011;480;48.124;11.578;2022-12-29T06:28:51;1.30;;;1.20;;
982;SDS011;480;48.124;11.578;2022-12-29T06:31:18;0.90;;;0.90;;
982;SDS011;480;48.124;11.578;2022-12-29T06:33:45;1.03;;;1.00;;
982;SDS011;480;48.124;11.578;2022-12-29T06:36:12;1.00;;;0.90;;
982;SDS011;480;48.124;11.578;2022-12-29T06:38:39;1.07;;;0.97;;
982;SDS011;480;48.124;11.578;2022-12-29T06:41:08;1.17;;;0.90;;
982;SDS011;480;48.124;11.578;2022-12-29T06:43:35;2.20;;;1.10;;
982;SDS011;480;48.124;11.578;2022-12-29T06:46:03;3.03;;;1.30;;
982;SDS011;480;48.124;11.578;2022-12-29T06:48:30;1.27;;;1.07;;
982;SDS011;480;48.124;11.578;2022-12-29T06:50:57;1.30;;;1.20;;
982;SDS011;480;48.124;11.578;2022-12-29T06:53:24;1.27;;;1.17;;
982;SDS011;480;48.124;11.578;2022-12-29T06:55:51;1.03;;;0.67;;
982;SDS011;480;48.124;11.578;2022-12-29T06:58:19;1.90;;;1.70;;
982;SDS011;480;48.124;11.578;2022-12-29T07:00:46;1.60;;;1.40;;
982;SDS011;480;48.124;11.578;2022-12-29T07:03:14;1.37;;;0.87;;
982;SDS011;480;48.124;11.578;2022-12-29T07:05:40;1.43;;;1.10;;
982;SDS011;480;48.124;11.578;2022-12-29T07:08:07;1.37;;;1.20;;
982;SDS011;480;48.124;11.578;2022-12-29T07:10:34;2.13;;;1.00;;
982;SDS011;480;48.124;11.578;2022-12-29T07:13:01;0.80;;;0.80;;
982;SDS011;480;48.124;11.578;2022-12-29T07:15:30;1.13;;;0.97;;
982;SDS011;480;48.124;11.578;2022-12-29T07:17:57;1.47;;;1.00;;
982;SDS011;480;48.124;11.578;2022-12-29T07:20:24;1.37;;;1.03;;
982;SDS011;480;48.124;11.578;2022-12-29T07:22:51;1.70;;;1.23;;
982;SDS011;480;48.124;11.578;2022-12-29T07:25:18;2.23;;;1.40;;
982;SDS011;480;48.124;11.578;2022-12-29T07:27:45;2.00;;;1.63;;
982;SDS011;480;48.124;11.578;2022-12-29T07:30:12;2.10;;;1.90;;
982;SDS011;480;48.124;11.578;2022-12-29T07:32:40;1.53;;;1.40;;
982;SDS011;480;48.124;11.578;2022-12-29T07:35:07;2.77;;;1.40;;
982;SDS011;480;48.124;11.578;2022-12-29T07:37:35;1.70;;;1.53;;
982;SDS011;480;48.124;11.578;2022-12-29T07:40:02;1.20;;;1.00;;
982;SDS011;480;48.124;11.578;2022-12-29T07:42:30;2.20;;;1.80;;
982;SDS011;480;48.124;11.578;2022-12-29T07:44:57;5.50;;;2.00;;
982;SDS011;480;48.124;11.578;2022-12-29T07:47:25;2.33;;;1.30;;
982;SDS011;480;48.124;11.578;2022-12-29T07:49:53;1.30;;;1.20;;
982;SDS011;480;48.124;11.578;2022-12-29T07:52:20;1.10;;;1.00;;
982;SDS011;480;48.124;11.578;2022-12-29T07:54:47;1.73;;;1.00;;
982;SDS011;480;48.124;11.578;2022-12-29T07:57:14;1.37;;;1.17;;
982;SDS011;480;48.124;11.578;2022-12-29T07:59:41;2.20;;;1.80;;
982;SDS011;480;48.124;11.578;2022-12-29T08:02:09;7.73;;;2.57;;
982;SDS011;480;48.124;11.578;2022-12-29T08:04:36;8.33;;;1.63;;
982;SDS011;480;48.124;11.578;2022-12-29T08:07:05;5.80;;;1.57;;
982;SDS011;480;48.124;11.578;2022-12-29T08:09:32;2.90;;;1.13;;
982;SDS011;480;48.124;11.578;2022-12-29T08:11:59;1.53;;;1.07;;
982;SDS011;480;48.124;11.578;2022-12-29T08:14:26;1.53;;;1.33;;
982;SDS011;480;48.124;11.578;2022-12-29T08:16:53;2.27;;;1.20;;
982;SDS011;480;48.124;11.578;2022-12-29T08:19:20;17.83;;;3.33;;
982;SDS011;480;48.124;11.578;2022-12-29T08:21:47;2.63;;;1.80;;
982;SDS011;480;48.124;11.578;2022-12-29T08:24:15;2.60;;;1.57;;
982;SDS011;480;48.124;11.578;2022-12-29T08:26:42;1.90;;;1.50;;
982;SDS011;480;48.124;11.578;2022-12-29T08:29:09;1.47;;;1.37;;
982;SDS011;480;48.124;11.578;2022-12-29T08:31:36;2.10;;;1.30;;
982;SDS011;480;48.124;11.578;2022-12-29T08:34:03;3.13;;;1.47;;
982;SDS011;480;48.124;11.578;2022-12-29T08:36:30;1.83;;;1.40;;
982;SDS011;480;48.124;11.578;2022-12-29T08:38:57;2.17;;;1.20;;
982;SDS011;480;48.124;11.578;2022-12-29T08:41:26;1.43;;;1.10;;
982;SDS011;480;48.124;11.578;2022-12-29T08:43:53;1.53;;;1.20;;
982;SDS011;480;48.124;11.578;2022-12-29T08:46:20;3.30;;;1.40;;
982;SDS011;480;48.124;11.578;2022-12-29T08:48:47;1.80;;;1.60;;
982;SDS011;480;48.124;11.578;2022-12-29T08:51:14;3.33;;;2.20;;
982;SDS011;480;48.124;11.578;2022-12-29T08:53:42;2.13;;;2.03;;
982;SDS011;480;48.124;11.578;2022-12-29T08:56:09;1.53;;;1.13;;
982;SDS011;480;48.124;11.578;2022-12-29T08:58:38;0.80;;;0.80;;
982;SDS011;480;48.124;11.578;2022-12-29T09:01:05;1.00;;;0.80;;
982;SDS011;480;48.124;11.578;2022-12-29T09:03:33;1.57;;;1.23;;
982;SDS011;480;48.124;11.578;2022-12-29T09:06:00;0.87;;;0.83;;
982;SDS011;480;48.124;11.578;2022-12-29T09:08:27;2.20;;;1.40;;
982;SDS011;480;48.124;11.578;2022-12-29T09:10:54;2.40;;;1.67;;
982;SDS011;480;48.124;11.578;2022-12-29T09:13:23;2.77;;;1.10;;
982;SDS011;480;48.124;11.578;2022-12-29T09:15:58;2.60;;;1.27;;
982;SDS011;480;48.124;11.578;2022-12-29T09:18:26;2.47;;;1.30;;
982;SDS011;480;48.124;11.578;2022-12-29T09:20:55;1.70;;;1.13;;
982;SDS011;480;48.124;11.578;2022-12-29T09:23:24;2.10;;;1.30;;
982;SDS011;480;48.124;11.578;2022-12-29T09:25:51;1.57;;;0.90;;
982;SDS011;480;48.124;11.578;2022-12-29T09:28:18;1.20;;;1.10;;
982;SDS011;480;48.124;11.578;2022-12-29T09:30:45;5.17;;;1.13;;
982;SDS011;480;48.124;11.578;2022-12-29T09:33:14;1.40;;;1.30;;
982;SDS011;480;48.124;11.578;2022-12-29T09:35:41;2.20;;;1.33;;
982;SDS011;480;48.124;11.578;2022-12-29T09:38:09;1.20;;;1.10;;
982;SDS011;480;48.124;11.578;2022-12-29T09:40:36;1.27;;;1.17;;
982;SDS011;480;48.124;11.578;2022-12-29T09:43:10;0.73;;;0.73;;
982;SDS011;480;48.124;11.578;2022-12-29T09:45:45;1.77;;;1.17;;
982;SDS011;480;48.124;11.578;2022-12-29T09:48:19;0.97;;;0.83;;
982;SDS011;480;48.124;11.578;2022-12-29T09:50:50;2.40;;;1.47;;
982;SDS011;480;48.124;11.578;2022-12-29T09:53:24;1.17;;;0.90;;
982;SDS011;480;48.124;11.578;2022-12-29T09:55:56;1.40;;;1.30;;
982;SDS011;480;48.124;11.578;2022-12-29T09:58:27;2.20;;;1.13;;
982;SDS011;480;48.124;11.578;2022-12-29T10:01:00;0.90;;;0.90;;
982;SDS011;480;48.124;11.578;2022-12-29T10:03:35;1.50;;;1.10;;
982;SDS011;480;48.124;11.578;2022-12-29T10:06:11;1.63;;;1.37;;
982;SDS011;480;48.124;11.578;2022-12-29T10:08:42;1.60;;;1.50;;
982;SDS011;480;48.124;11.578;2022-12-29T10:11:18;1.90;;;1.27;;
982;SDS011;480;48.124;11.578;2022-12-29T10:13:58;2.10;;;1.27;;
982;SDS011;480;48.124;11.578;2022-12-29T10:16:38;0.87;;;0.87;;
982;SDS011;480;48.124;11.578;2022-12-29T10:19:18;1.50;;;1.40;;
982;SDS011;480;48.124;11.578;2022-12-29T10:22:02;1.40;;;1.17;;
982;SDS011;480;48.124;11.578;2022-12-29T10:24:37;1.20;;;1.10;;
982;SDS011;480;48.124;11.578;2022-12-29T10:27:07;1.40;;;1.00;;
982;SDS011;480;48.124;11.578;2022-12-29T10:29:39;1.50;;;1.10;;
982;SDS011;480;48.124;11.578;2022-12-29T10:32:13;1.47;;;1.23;;
982;SDS011;480;48.124;11.578;2022-12-29T10:34:51;2.10;;;1.43;;
982;SDS011;480;48.124;11.578;2022-12-29T10:37:29;1.30;;;1.20;;
982;SDS011;480;48.124;11.578;2022-12-29T10:40:01;1.63;;;1.20;;
982;SDS011;480;48.124;11.578;2022-12-29T10:42:40;5.23;;;1.80;;
982;SDS011;480;48.124;11.578;2022-12-29T10:45:11;1.47;;;1.30;;
982;SDS011;480;48.124;11.578;2022-12-29T10:47:45;1.40;;;1.03;;
982;SDS011;480;48.124;11.578;2022-12-29T10:50:19;1.87;;;1.40;;
982;SDS011;480;48.124;11.578;2022-12-29T10:52:46;4.43;;;1.43;;
982;SDS011;480;48.124;11.578;2022-12-29T10:55:15;1.20;;;1.10;;
982;SDS011;480;48.124;11.578;2022-12-29T10:57:47;1.67;;;1.57;;
982;SDS011;480;48.124;11.578;2022-12-29T11:00:15;1.30;;;1.20;;
982;SDS011;480;48.124;11.578;2022-12-29T11:05:44;1.47;;;1.33;;
982;SDS011;480;48.124;11.578;2022-12-29T11:08:19;2.07;;;1.47;;
982;SDS011;480;48.124;11.578;2022-12-29T11:10:57;2.10;;;1.30;;
982;SDS011;480;48.124;11.578;2022-12-29T11:13:27;1.27;;;1.10;;
982;SDS011;480;48.124;11.578;2022-12-29T11:15:55;1.10;;;1.00;;
982;SDS011;480;48.124;11.578;2022-12-29T11:18:23;1.90;;;1.23;;
982;SDS011;480;48.124;11.578;2022-12-29T11:20:53;1.70;;;1.10;;
982;SDS011;480;48.124;11.578;2022-12-29T11:23:31;3.40;;;1.47;;
982;SDS011;480;48.124;11.578;2022-12-29T11:26:05;1.30;;;1.10;;
982;SDS011;480;48.124;11.578;2022-12-29T11:28:44;1.53;;;0.97;;
982;SDS011;480;48.124;11.578;2022-12-29T11:33:48;1.63;;;1.20;;
982;SDS011;480;48.124;11.578;2022-12-29T11:36:17;2.00;;;1.40;;
982;SDS011;480;48.124;11.578;2022-12-29T11:38:50;1.20;;;1.10;;
982;SDS011;480;48.124;11.578;2022-12-29T11:41:28;1.73;;;1.00;;
982;SDS011;480;48.124;11.578;2022-12-29T11:43:58;1.80;;;1.20;;
982;SDS011;480;48.124;11.578;2022-12-29T11:46:28;3.10;;;1.37;;
982;SDS011;480;48.124;11.578;2022-12-29T11:48:58;1.20;;;0.90;;
982;SDS011;480;48.124;11.578;2022-12-29T11:51:28;1.93;;;1.20;;
982;SDS011;480;48.124;11.578;2022-12-29T11:54:00;1.37;;;1.00;;
982;SDS011;480;48.124;11.578;2022-12-29T11:56:33;2.30;;;1.40;;
982;SDS011;480;48.124;11.578;2022-12-29T11:59:23;2.80;;;1.73;;
982;SDS011;480;48.124;11.578;2022-12-29T12:05:09;1.60;;;1.17;;
982;SDS011;480;48.124;11.578;2022-12-29T12:07:42;2.80;;;1.73;;
982;SDS011;480;48.124;11.578;2022-12-29T12:10:16;2.40;;;1.40;;
982;SDS011;480;48.124;11.578;2022-12-29T12:12:49;2.50;;;1.40;;
982;SDS011;480;48.124;11.578;2022-12-29T12:15:20;1.70;;;1.10;;
982;SDS011;480;48.124;11.578;2022-12-29T12:17:51;3.93;;;2.00;;
982;SDS011;480;48.124;11.578;2022-12-29T12:20:22;2.00;;;1.00;;
982;SDS011;480;48.124;11.578;2022-12-29T12:22:58;3.13;;;1.40;;
982;SDS011;480;48.124;11.578;2022-12-29T12:25:37;2.50;;;1.30;;
982;SDS011;480;48.124;11.578;2022-12-29T12:28:09;2.57;;;1.07;;
982;SDS011;480;48.124;11.578;2022-12-29T12:30:43;3.57;;;1.53;;
982;SDS011;480;48.124;11.578;2022-12-29T12:33:16;4.40;;;1.77;;
982;SDS011;480;48.124;11.578;2022-12-29T12:35:53;2.50;;;1.20;;
982;SDS011;480;48.124;11.578;2022-12-29T12:38:34;3.43;;;1.20;;
982;SDS011;480;48.124;11.578;2022-12-29T12:41:11;2.30;;;1.23;;
982;SDS011;480;48.124;11.578;2022-12-29T12:43:44;3.03;;;1.50;;
982;SDS011;480;48.124;11.578;2022-12-29T12:46:23;2.83;;;1.17;;
982;SDS011;480;48.124;11.578;2022-12-29T12:52:12;1.93;;;1.17;;
982;SDS011;480;48.124;11.578;2022-12-29T12:54:54;2.20;;;1.13;;
982;SDS011;480;48.124;11.578;2022-12-29T12:57:58;2.57;;;0.90;;
982;SDS011;480;48.124;11.578;2022-12-29T13:00:37;2.93;;;1.60;;
982;SDS011;480;48.124;11.578;2022-12-29T13:03:12;3.90;;;1.10;;
982;SDS011;480;48.124;11.578;2022-12-29T13:05:50;2.83;;;1.00;;
982;SDS011;480;48.124;11.578;2022-12-29T13:11:46;3.80;;;1.27;;
982;SDS011;480;48.124;11.578;2022-12-29T13:14:31;4.53;;;1.30;;
982;SDS011;480;48.124;11.578;2022-12-29T13:17:07;2.37;;;1.00;;
982;SDS011;480;48.124;11.578;2022-12-29T13:19:41;2.90;;;1.27;;
982;SDS011;480;48.124;11.578;2022-12-29T13:22:16;2.17;;;1.23;;
982;SDS011;480;48.124;11.578;2022-12-29T13:24:50;2.30;;;1.10;;
982;SDS011;480;48.124;11.578;2022-12-29T13:27:32;5.70;;;1.63;;
982;SDS011;480;48.124;11.578;2022-12-29T13:30:04;3.07;;;1.50;;
982;SDS011;480;48.124;11.578;2022-12-29T13:32:40;3.97;;;2.13;;
982;SDS011;480;48.124;11.578;2022-12-29T13:35:19;2.13;;;1.17;;
982;SDS011;480;48.124;11.578;2022-12-29T13:38:11;2.60;;;1.17;;
982;SDS011;480;48.124;11.578;2022-12-29T13:40:44;7.60;;;1.80;;
982;SDS011;480;48.124;11.578;2022-12-29T13:43:14;2.17;;;1.33;;
982;SDS011;480;48.124;11.578;2022-12-29T13:45:42;1.80;;;1.10;;
982;SDS011;480;48.124;11.578;2022-12-29T13:48:13;2.20;;;1.30;;
982;SDS011;480;48.124;11.578;2022-12-29T13:50:44;2.20;;;1.20;;
982;SDS011;480;48.124;11.578;2022-12-29T13:53:19;2.67;;;1.27;;
982;SDS011;480;48.124;11.578;2022-12-29T13:55:54;3.50;;;1.40;;
982;SDS011;480;48.124;11.578;2022-12-29T13:58:28;2.70;;;1.90;;
982;SDS011;480;48.124;11.578;2022-12-29T14:01:03;2.40;;;1.30;;
982;SDS011;480;48.124;11.578;2022-12-29T14:03:49;2.10;;;1.30;;
982;SDS011;480;48.124;11.578;2022-12-29T14:06:22;2.20;;;1.40;;
982;SDS011;480;48.124;11.578;2022-12-29T14:08:51;2.63;;;1.37;;
982;SDS011;480;48.124;11.578;2022-12-29T14:11:21;2.67;;;1.80;;
982;SDS011;480;48.124;11.578;2022-12-29T14:13:53;2.60;;;1.67;;
982;SDS011;480;48.124;11.578;2022-12-29T14:16:25;2.83;;;1.27;;
982;SDS011;480;48.124;11.578;2022-12-29T14:18:54;2.40;;;1.70;;
982;SDS011;480;48.124;11.578;2022-12-29T14:21:23;2.50;;;1.50;;
982;SDS011;480;48.124;11.578;2022-12-29T14:23:57;3.10;;;1.10;;
982;SDS011;480;48.124;11.578;2022-12-29T14:26:43;3.20;;;1.77;;
982;SDS011;480;48.124;11.578;2022-12-29T14:29:41;2.20;;;1.80;;
982;SDS011;480;48.124;11.578;2022-12-29T14:35:36;2.40;;;1.50;;
982;SDS011;480;48.124;11.578;2022-12-29T14:38:18;2.67;;;2.00;;
982;SDS011;480;48.124;11.578;2022-12-29T14:40:47;2.93;;;2.63;;
982;SDS011;480;48.124;11.578;2022-12-29T14:43:19;3.87;;;1.90;;
982;SDS011;480;48.124;11.578;2022-12-29T14:45:56;4.13;;;2.17;;
982;SDS011;480;48.124;11.578;2022-12-29T14:48:33;2.30;;;1.73;;
982;SDS011;480;48.124;11.578;2022-12-29T14:51:16;5.17;;;2.27;;
982;SDS011;480;48.124;11.578;2022-12-29T14:53:54;3.40;;;2.15;;
982;SDS011;480;48.124;11.578;2022-12-29T14:56:24;1.60;;;1.43;;
982;SDS011;480;48.124;11.578;2022-12-29T14:58:53;2.27;;;1.63;;
982;SDS011;480;48.124;11.578;2022-12-29T15:01:26;2.60;;;1.60;;
982;SDS011;480;48.124;11.578;2022-12-29T15:04:03;2.43;;;1.47;;
982;SDS011;480;48.124;11.578;2022-12-29T15:06:39;2.70;;;2.03;;
982;SDS011;480;48.124;11.578;2022-12-29T15:09:12;2.60;;;1.70;;
982;SDS011;480;48.124;11.578;2022-12-29T15:11:49;2.60;;;2.23;;
982;SDS011;480;48.124;11.578;2022-12-29T15:14:32;3.00;;;2.00;;
982;SDS011;480;48.124;11.578;2022-12-29T15:17:08;4.37;;;2.73;;
982;SDS011;480;48.124;11.578;2022-12-29T15:19:37;3.30;;;2.30;;
982;SDS011;480;48.124;11.578;2022-12-29T15:22:05;3.93;;;2.70;;
982;SDS011;480;48.124;11.578;2022-12-29T15:24:32;2.47;;;2.07;;
982;SDS011;480;48.124;11.578;2022-12-29T15:27:02;3.07;;;2.07;;
982;SDS011;480;48.124;11.578;2022-12-29T15:29:32;2.30;;;2.10;;
982;SDS011;480;48.124;11.578;2022-12-29T15:32:15;4.07;;;2.00;;
982;SDS011;480;48.124;11.578;2022-12-29T15:34:44;2.67;;;2.30;;
982;SDS011;480;48.124;11.578;2022-12-29T15:37:17;3.17;;;2.10;;
982;SDS011;480;48.124;11.578;2022-12-29T15:39:46;2.80;;;1.80;;
982;SDS011;480;48.124;11.578;2022-12-29T15:45:03;3.10;;;2.43;;
982;SDS011;480;48.124;11.578;2022-12-29T15:47:32;2.80;;;1.90;;
982;SDS011;480;48.124;11.578;2022-12-29T15:50:04;3.23;;;2.50;;
982;SDS011;480;48.124;11.578;2022-12-29T15:52:32;4.00;;;3.60;;
982;SDS011;480;48.124;11.578;2022-12-29T15:55:00;2.70;;;2.40;;
982;SDS011;480;48.124;11.578;2022-12-29T15:57:29;3.70;;;3.33;;
982;SDS011;480;48.124;11.578;2022-12-29T16:00:02;4.33;;;3.40;;
982;SDS011;480;48.124;11.578;2022-12-29T16:02:32;3.70;;;3.40;;
982;SDS011;480;48.124;11.578;2022-12-29T16:05:00;4.97;;;4.47;;
982;SDS011;480;48.124;11.578;2022-12-29T16:07:28;4.90;;;3.70;;
982;SDS011;480;48.124;11.578;2022-12-29T16:09:57;5.20;;;3.73;;
982;SDS011;480;48.124;11.578;2022-12-29T16:12:26;4.50;;;2.83;;
982;SDS011;480;48.124;11.578;2022-12-29T16:14:58;4.80;;;3.50;;
982;SDS011;480;48.124;11.578;2022-12-29T16:17:27;4.30;;;2.90;;
982;SDS011;480;48.124;11.578;2022-12-29T16:19:58;4.40;;;4.00;;
982;SDS011;480;48.124;11.578;2022-12-29T16:22:27;3.30;;;2.43;;